Time;durP1;ratioP1;P1;durP2;ratioP2;P2;SDS_P1;SDS_P2;PMS_P1;PMS_P2;Temp;Humidity;BMP_temperature;BMP_pressure;BME280_temperature;BME280_humidity;BME280_pressure;Samples;Min_cycle;Max_cycle;Signal;HPM_P1;HPM_P2
2021/10/16 00:02:07;;;;;;;13.05;3.20;;;;;;;;;;5041555;28;20025;-57
2021/10/16 00:04:33;;;;;;;9.13;3.70;;;;;;;;;;5036509;28;20053;-57
2021/10/16 00:07:00;;;;;;;14.30;3.20;;;;;;;;;;5040281;28;20037;-57
2021/10/16 00:09:26;;;;;;;8.43;2.85;;;;;;;;;;5033291;28;20053;-56
2021/10/16 00:11:53;;;;;;;11.48;2.95;;;;;;;;;;5034169;28;20043;-57
2021/10/16 00:14:19;;;;;;;11.18;3.45;;;;;;;;;;5039849;28;20053;-58
2021/10/16 00:16:47;;;;;;;14.60;3.22;;;;;;;;;;5023483;28;20048;-58
2021/10/16 00:19:15;;;;;;;12.70;3.13;;;;;;;;;;5023547;28;20045;-56
2021/10/16 00:21:42;;;;;;;8.63;2.83;;;;;;;;;;5038980;28;20065;-58
2021/10/16 00:24:09;;;;;;;15.18;3.45;;;;;;;;;;5022429;28;20038;-58
2021/10/16 00:26:35;;;;;;;9.82;2.60;;;;;;;;;;5021238;28;20056;-57
2021/10/16 00:29:02;;;;;;;7.13;2.70;;;;;;;;;;5023882;28;20030;-58
2021/10/16 00:31:29;;;;;;;10.13;2.60;;;;;;;;;;5020876;28;20042;-55
2021/10/16 00:33:55;;;;;;;11.77;2.58;;;;;;;;;;5023643;28;20115;-54
2021/10/16 00:36:23;;;;;;;9.05;2.40;;;;;;;;;;5028852;28;20052;-57
2021/10/16 00:38:50;;;;;;;13.50;2.88;;;;;;;;;;5039590;28;20196;-53
2021/10/16 00:41:17;;;;;;;9.27;2.72;;;;;;;;;;5022653;28;20034;-54
2021/10/16 00:43:43;;;;;;;9.80;3.08;;;;;;;;;;5025332;28;20038;-57
2021/10/16 00:46:10;;;;;;;9.75;3.10;;;;;;;;;;5028404;28;20126;-57
2021/10/16 00:48:37;;;;;;;9.90;2.75;;;;;;;;;;5042164;28;20029;-55
2021/10/16 00:51:03;;;;;;;8.55;3.42;;;;;;;;;;5035520;28;20513;-57
2021/10/16 00:53:31;;;;;;;11.55;3.10;;;;;;;;;;5024639;28;20072;-58
2021/10/16 00:55:58;;;;;;;11.35;2.80;;;;;;;;;;5018540;28;20135;-57
2021/10/16 00:58:25;;;;;;;7.53;2.83;;;;;;;;;;5023771;28;20042;-56
2021/10/16 01:00:52;;;;;;;10.35;3.72;;;;;;;;;;5022127;28;20065;-57
2021/10/16 01:03:18;;;;;;;14.07;3.28;;;;;;;;;;5035687;28;20049;-57
2021/10/16 01:05:45;;;;;;;8.60;3.10;;;;;;;;;;5023866;28;20658;-58
2021/10/16 01:08:12;;;;;;;9.23;2.83;;;;;;;;;;5018021;28;20061;-58
2021/10/16 01:10:41;;;;;;;11.05;3.25;;;;;;;;;;5025937;28;20088;-59
2021/10/16 01:13:07;;;;;;;9.95;2.95;;;;;;;;;;5031351;28;20026;-59
2021/10/16 01:15:34;;;;;;;10.25;3.08;;;;;;;;;;5026978;28;20045;-58
2021/10/16 01:18:02;;;;;;;10.50;2.67;;;;;;;;;;5020730;28;20044;-55
2021/10/16 01:20:28;;;;;;;7.88;2.80;;;;;;;;;;5021612;28;20341;-58
2021/10/16 01:22:59;;;;;;;7.30;2.75;;;;;;;;;;5028425;28;20037;-52
2021/10/16 01:25:25;;;;;;;10.25;2.83;;;;;;;;;;5042819;28;20041;-55
2021/10/16 01:27:52;;;;;;;6.55;2.42;;;;;;;;;;5028884;28;20041;-54
2021/10/16 01:30:19;;;;;;;6.65;2.40;;;;;;;;;;5022629;28;20037;-55
2021/10/16 01:32:46;;;;;;;10.77;2.85;;;;;;;;;;5018752;28;20056;-54
2021/10/16 01:35:13;;;;;;;8.50;2.38;;;;;;;;;;5022511;28;20053;-55
2021/10/16 01:37:40;;;;;;;9.55;2.45;;;;;;;;;;5020025;28;20041;-57
2021/10/16 01:40:09;;;;;;;6.95;2.33;;;;;;;;;;5043346;28;20049;-52
2021/10/16 01:42:37;;;;;;;12.80;2.92;;;;;;;;;;5039045;28;20067;-55
2021/10/16 01:45:04;;;;;;;10.82;2.90;;;;;;;;;;5037004;28;20061;-56
2021/10/16 01:47:31;;;;;;;6.95;2.35;;;;;;;;;;5022631;28;20168;-57
2021/10/16 01:49:57;;;;;;;8.32;2.40;;;;;;;;;;5017149;28;20061;-54
2021/10/16 01:52:24;;;;;;;6.70;2.50;;;;;;;;;;5023385;28;20123;-57
2021/10/16 01:54:51;;;;;;;8.73;2.30;;;;;;;;;;5033516;28;20101;-55
2021/10/16 01:57:19;;;;;;;9.02;2.40;;;;;;;;;;5043652;28;20459;-58
2021/10/16 01:59:45;;;;;;;10.75;2.90;;;;;;;;;;5035865;28;20061;-57
2021/10/16 02:02:12;;;;;;;11.52;2.38;;;;;;;;;;5023075;28;20045;-53
2021/10/16 02:04:38;;;;;;;9.98;2.58;;;;;;;;;;5044875;28;20069;-56
2021/10/16 02:07:05;;;;;;;7.28;2.22;;;;;;;;;;5023355;28;20602;-53
2021/10/16 02:09:31;;;;;;;9.18;2.50;;;;;;;;;;5020057;28;20377;-56
2021/10/16 02:11:58;;;;;;;11.68;2.70;;;;;;;;;;5033187;28;20055;-53
2021/10/16 02:14:26;;;;;;;6.55;2.40;;;;;;;;;;5034358;28;20104;-56
2021/10/16 02:16:52;;;;;;;6.57;2.40;;;;;;;;;;5021293;28;20042;-57
2021/10/16 02:19:19;;;;;;;5.35;2.20;;;;;;;;;;5018715;28;20057;-58
2021/10/16 02:21:45;;;;;;;6.97;1.95;;;;;;;;;;5023257;28;20448;-57
2021/10/16 02:24:12;;;;;;;5.50;1.92;;;;;;;;;;5021174;28;20049;-57
2021/10/16 02:26:38;;;;;;;8.23;2.80;;;;;;;;;;5021766;28;20029;-60
2021/10/16 02:29:05;;;;;;;5.25;2.13;;;;;;;;;;5022111;28;20038;-56
2021/10/16 02:31:32;;;;;;;7.88;2.15;;;;;;;;;;5019747;28;20080;-58
2021/10/16 02:33:59;;;;;;;7.87;2.27;;;;;;;;;;5022647;28;20053;-57
2021/10/16 02:36:26;;;;;;;13.27;2.80;;;;;;;;;;5018147;28;20298;-56
2021/10/16 02:38:52;;;;;;;6.45;2.17;;;;;;;;;;5024067;28;20053;-56
2021/10/16 02:41:19;;;;;;;8.55;2.33;;;;;;;;;;5021037;28;20081;-58
2021/10/16 02:43:45;;;;;;;5.82;2.30;;;;;;;;;;5026541;28;20135;-56
2021/10/16 02:46:11;;;;;;;5.57;2.40;;;;;;;;;;5044717;28;20087;-58
2021/10/16 02:48:40;;;;;;;6.25;2.35;;;;;;;;;;5040525;28;20041;-55
2021/10/16 02:51:06;;;;;;;7.28;2.28;;;;;;;;;;5047362;28;20037;-55
2021/10/16 02:53:35;;;;;;;6.50;2.10;;;;;;;;;;5022761;28;20445;-51
2021/10/16 02:56:01;;;;;;;9.85;2.40;;;;;;;;;;5019216;28;20041;-56
2021/10/16 02:58:28;;;;;;;8.25;2.30;;;;;;;;;;5039018;28;20041;-53
2021/10/16 03:00:55;;;;;;;8.57;2.50;;;;;;;;;;5018461;28;20038;-54
2021/10/16 03:03:22;;;;;;;8.00;2.60;;;;;;;;;;5021141;28;20107;-57
2021/10/16 03:05:50;;;;;;;6.13;2.15;;;;;;;;;;5019972;28;20061;-58
2021/10/16 03:08:16;;;;;;;4.23;1.97;;;;;;;;;;5021228;28;20133;-58
2021/10/16 03:10:44;;;;;;;12.43;2.55;;;;;;;;;;5021983;28;20119;-53
2021/10/16 03:13:10;;;;;;;9.13;2.63;;;;;;;;;;5052455;28;20029;-56
2021/10/16 03:15:37;;;;;;;7.28;2.33;;;;;;;;;;5040815;28;20130;-52
2021/10/16 03:18:07;;;;;;;4.47;2.10;;;;;;;;;;5022846;28;20124;-58
2021/10/16 03:20:33;;;;;;;5.97;2.05;;;;;;;;;;5020799;28;20139;-55
2021/10/16 03:23:01;;;;;;;6.30;2.08;;;;;;;;;;5029176;28;20045;-54
2021/10/16 03:25:28;;;;;;;9.50;2.10;;;;;;;;;;5040422;28;20053;-53
2021/10/16 03:27:55;;;;;;;8.65;2.10;;;;;;;;;;5036731;28;20709;-57
2021/10/16 03:30:21;;;;;;;7.47;2.28;;;;;;;;;;5041353;28;20038;-53
2021/10/16 03:32:48;;;;;;;6.72;2.30;;;;;;;;;;5034777;28;20064;-55
2021/10/16 03:35:14;;;;;;;7.50;2.40;;;;;;;;;;5023418;28;20041;-52
2021/10/16 03:37:41;;;;;;;8.48;2.33;;;;;;;;;;5032837;28;20098;-54
2021/10/16 03:40:11;;;;;;;5.82;1.85;;;;;;;;;;5020901;28;20053;-55
2021/10/16 03:42:37;;;;;;;9.93;2.40;;;;;;;;;;5019796;28;20046;-54
2021/10/16 03:45:04;;;;;;;6.85;2.08;;;;;;;;;;5040010;28;20057;-57
2021/10/16 03:47:33;;;;;;;5.13;1.83;;;;;;;;;;5019326;28;20081;-55
2021/10/16 03:49:59;;;;;;;;;;;;;;;;;;5021150;28;20042;-54
2021/10/16 03:52:25;;;;;;;6.97;2.28;;;;;;;;;;5019906;28;19925;-56
2021/10/16 03:54:52;;;;;;;11.10;2.17;;;;;;;;;;5036895;28;20042;-53
2021/10/16 03:57:20;;;;;;;8.10;2.42;;;;;;;;;;5039741;28;20037;-53
2021/10/16 03:59:47;;;;;;;9.57;2.28;;;;;;;;;;5019859;28;20242;-54
2021/10/16 04:02:14;;;;;;;5.40;2.38;;;;;;;;;;5021137;28;20077;-55
2021/10/16 04:04:41;;;;;;;5.10;1.77;;;;;;;;;;5019003;28;20049;-57
2021/10/16 04:07:08;;;;;;;7.15;2.35;;;;;;;;;;5022545;28;20053;-55
2021/10/16 04:09:34;;;;;;;8.38;2.47;;;;;;;;;;5017603;28;20119;-57
2021/10/16 04:12:01;;;;;;;6.95;2.38;;;;;;;;;;5023594;28;20045;-53
2021/10/16 04:14:29;;;;;;;7.53;2.50;;;;;;;;;;5017770;28;20038;-56
2021/10/16 04:16:55;;;;;;;6.40;2.00;;;;;;;;;;5021902;28;20038;-54
2021/10/16 04:19:22;;;;;;;7.93;2.40;;;;;;;;;;5019108;28;20046;-56
2021/10/16 04:21:49;;;;;;;6.78;2.20;;;;;;;;;;5020424;28;20044;-54
2021/10/16 04:24:15;;;;;;;8.20;2.45;;;;;;;;;;5036602;28;20041;-54
2021/10/16 04:26:42;;;;;;;6.78;2.45;;;;;;;;;;5022790;28;20050;-57
2021/10/16 04:29:08;;;;;;;6.20;2.50;;;;;;;;;;5017964;28;20049;-54
2021/10/16 04:31:36;;;;;;;10.60;2.65;;;;;;;;;;5019998;28;20050;-55
2021/10/16 04:34:04;;;;;;;11.95;2.58;;;;;;;;;;5017882;28;20152;-57
2021/10/16 04:36:31;;;;;;;7.18;2.38;;;;;;;;;;5016038;28;20038;-51
2021/10/16 04:38:58;;;;;;;9.65;2.40;;;;;;;;;;5019513;28;20048;-52
2021/10/16 04:41:24;;;;;;;4.25;1.90;;;;;;;;;;5017235;28;20042;-55
2021/10/16 04:43:51;;;;;;;9.35;2.17;;;;;;;;;;5019801;28;20046;-50
2021/10/16 04:46:18;;;;;;;9.95;2.70;;;;;;;;;;5016509;28;20046;-57
2021/10/16 04:48:46;;;;;;;12.85;2.83;;;;;;;;;;5020780;28;20053;-57
2021/10/16 04:51:13;;;;;;;7.45;2.13;;;;;;;;;;5018561;28;20056;-57
2021/10/16 04:53:40;;;;;;;11.98;2.40;;;;;;;;;;5018918;28;20100;-53
2021/10/16 04:56:06;;;;;;;12.00;2.58;;;;;;;;;;5018429;28;20050;-57
2021/10/16 04:58:33;;;;;;;10.48;2.20;;;;;;;;;;5022862;28;20058;-56
2021/10/16 05:00:59;;;;;;;10.57;2.35;;;;;;;;;;5021750;28;20319;-55
2021/10/16 05:03:26;;;;;;;8.85;2.03;;;;;;;;;;5025241;28;20056;-55
2021/10/16 05:05:55;;;;;;;10.40;2.22;;;;;;;;;;5021222;28;20050;-56
2021/10/16 05:08:22;;;;;;;;;;;;;;;;;;5024784;28;20059;-55
2021/10/16 05:10:49;;;;;;;5.45;1.83;;;;;;;;;;5018947;28;19921;-57
2021/10/16 05:13:15;;;;;;;11.25;2.70;;;;;;;;;;5023405;28;20038;-54
2021/10/16 05:15:42;;;;;;;9.05;2.63;;;;;;;;;;5024427;28;20176;-55
2021/10/16 05:18:09;;;;;;;6.57;2.30;;;;;;;;;;5037571;28;20123;-56
2021/10/16 05:20:35;;;;;;;5.05;2.03;;;;;;;;;;5045398;28;20048;-58
2021/10/16 05:23:04;;;;;;;8.60;2.00;;;;;;;;;;5015723;28;20026;-58
2021/10/16 05:25:30;;;;;;;9.10;2.40;;;;;;;;;;5022458;28;20045;-54
2021/10/16 05:27:57;;;;;;;15.52;2.75;;;;;;;;;;5034859;28;20069;-54
2021/10/16 05:30:23;;;;;;;9.75;2.30;;;;;;;;;;5043527;28;20122;-54
2021/10/16 05:32:51;;;;;;;11.48;2.70;;;;;;;;;;5040169;28;20088;-54
2021/10/16 05:35:17;;;;;;;8.43;2.90;;;;;;;;;;5045662;28;20096;-55
2021/10/16 05:37:44;;;;;;;8.45;2.35;;;;;;;;;;5039442;28;20143;-58
2021/10/16 05:40:12;;;;;;;10.60;2.80;;;;;;;;;;5045527;28;20045;-58
2021/10/16 05:42:38;;;;;;;11.63;2.55;;;;;;;;;;5035414;28;20057;-58
2021/10/16 05:45:06;;;;;;;10.43;2.50;;;;;;;;;;5035399;28;20370;-52
2021/10/16 05:47:33;;;;;;;9.15;2.50;;;;;;;;;;5036919;28;20127;-53
2021/10/16 05:49:59;;;;;;;11.38;2.55;;;;;;;;;;5022264;28;20038;-56
2021/10/16 05:52:26;;;;;;;13.43;2.80;;;;;;;;;;5021410;28;20365;-54
2021/10/16 05:54:52;;;;;;;11.52;2.45;;;;;;;;;;5024695;28;20034;-57
2021/10/16 05:57:21;;;;;;;14.60;2.60;;;;;;;;;;5021834;28;20038;-55
2021/10/16 05:59:48;;;;;;;7.85;2.67;;;;;;;;;;5020418;28;20049;-56
2021/10/16 06:02:14;;;;;;;11.90;2.70;;;;;;;;;;5022178;28;20074;-55
2021/10/16 06:04:41;;;;;;;11.60;2.40;;;;;;;;;;5019506;28;20493;-55
2021/10/16 06:07:08;;;;;;;8.30;2.53;;;;;;;;;;5022768;28;20049;-56
2021/10/16 06:09:34;;;;;;;11.02;3.10;;;;;;;;;;5018599;28;20041;-56
2021/10/16 06:12:01;;;;;;;8.77;2.67;;;;;;;;;;5033441;28;20048;-57
2021/10/16 06:14:28;;;;;;;6.18;2.00;;;;;;;;;;5028626;28;20037;-55
2021/10/16 06:17:03;;;;;;;9.77;2.77;;;;;;;;;;5022664;28;20074;-54
2021/10/16 06:19:30;;;;;;;6.03;2.42;;;;;;;;;;5027687;28;20045;-52
2021/10/16 06:21:56;;;;;;;10.98;2.92;;;;;;;;;;5042455;28;20068;-55
2021/10/16 06:24:23;;;;;;;9.02;2.75;;;;;;;;;;5029974;28;20089;-54
2021/10/16 06:26:50;;;;;;;11.23;2.75;;;;;;;;;;5023709;28;20043;-53
2021/10/16 06:29:16;;;;;;;13.75;2.97;;;;;;;;;;5021337;28;20085;-54
2021/10/16 06:31:44;;;;;;;7.00;2.40;;;;;;;;;;5023856;28;20038;-55
2021/10/16 06:34:11;;;;;;;8.70;2.40;;;;;;;;;;5017698;28;20061;-54
2021/10/16 06:36:38;;;;;;;10.57;2.63;;;;;;;;;;5022556;28;20356;-55
2021/10/16 06:39:04;;;;;;;13.57;3.20;;;;;;;;;;5021766;28;20053;-55
2021/10/16 06:41:31;;;;;;;7.45;2.95;;;;;;;;;;5040245;28;20052;-54
2021/10/16 06:43:57;;;;;;;12.20;2.70;;;;;;;;;;5044195;28;20408;-53
2021/10/16 06:46:25;;;;;;;8.95;2.70;;;;;;;;;;5037889;28;20057;-51
2021/10/16 06:48:53;;;;;;;9.07;2.60;;;;;;;;;;5038786;28;20052;-55
2021/10/16 06:51:19;;;;;;;8.73;2.53;;;;;;;;;;5035139;28;20042;-56
2021/10/16 06:53:46;;;;;;;11.00;3.50;;;;;;;;;;5021785;28;20191;-58
2021/10/16 06:56:15;;;;;;;10.95;3.22;;;;;;;;;;5019875;28;20038;-57
2021/10/16 06:58:41;;;;;;;;;;;;;;;;;;5022060;28;20123;-52
2021/10/16 07:01:08;;;;;;;8.93;2.95;;;;;;;;;;5019543;28;19917;-54
2021/10/16 07:03:34;;;;;;;9.25;2.67;;;;;;;;;;5029341;28;20048;-58
2021/10/16 07:06:02;;;;;;;7.55;2.40;;;;;;;;;;5026917;28;20127;-57
2021/10/16 07:08:29;;;;;;;16.85;2.55;;;;;;;;;;5028191;28;20033;-54
2021/10/16 07:10:56;;;;;;;10.27;3.05;;;;;;;;;;5030326;28;20135;-55
2021/10/16 07:13:26;;;;;;;18.25;3.65;;;;;;;;;;5035482;28;20026;-54
2021/10/16 07:15:53;;;;;;;11.73;3.33;;;;;;;;;;5030996;28;21540;-56
2021/10/16 07:18:20;;;;;;;6.72;2.85;;;;;;;;;;5033901;28;20044;-57
2021/10/16 07:20:47;;;;;;;15.93;2.75;;;;;;;;;;5018987;28;20045;-58
2021/10/16 07:23:16;;;;;;;6.97;2.38;;;;;;;;;;5030706;28;20041;-56
2021/10/16 07:25:43;;;;;;;8.05;2.60;;;;;;;;;;5024144;28;20153;-52
2021/10/16 07:28:09;;;;;;;9.48;3.03;;;;;;;;;;5017868;28;20049;-54
2021/10/16 07:30:36;;;;;;;11.02;4.03;;;;;;;;;;5045065;28;20054;-53
2021/10/16 07:33:03;;;;;;;11.25;3.88;;;;;;;;;;5023751;28;20053;-57
2021/10/16 07:35:29;;;;;;;10.85;3.40;;;;;;;;;;5020187;28;20095;-57
2021/10/16 07:37:56;;;;;;;10.50;2.40;;;;;;;;;;5028861;28;20040;-54
2021/10/16 07:40:24;;;;;;;16.08;2.83;;;;;;;;;;5034179;28;20077;-57
2021/10/16 07:42:50;;;;;;;6.63;2.57;;;;;;;;;;5024030;28;20045;-55
2021/10/16 07:45:17;;;;;;;11.20;3.30;;;;;;;;;;5042357;28;20467;-56
2021/10/16 07:47:44;;;;;;;8.50;2.90;;;;;;;;;;5036128;28;20045;-57
2021/10/16 07:50:10;;;;;;;10.73;3.10;;;;;;;;;;5040426;28;20048;-55
2021/10/16 07:52:37;;;;;;;7.28;2.83;;;;;;;;;;5032370;28;20115;-57
2021/10/16 07:55:04;;;;;;;7.72;2.95;;;;;;;;;;5020352;28;20041;-57
2021/10/16 07:57:32;;;;;;;10.93;2.75;;;;;;;;;;5020073;28;20211;-55
2021/10/16 07:59:59;;;;;;;8.77;2.80;;;;;;;;;;5041791;28;20037;-57
2021/10/16 08:02:25;;;;;;;15.73;2.90;;;;;;;;;;5038951;28;20274;-56
2021/10/16 08:04:51;;;;;;;17.70;3.20;;;;;;;;;;5041403;28;20049;-56
2021/10/16 08:07:19;;;;;;;10.38;3.83;;;;;;;;;;5040564;28;20127;-55
2021/10/16 08:09:45;;;;;;;11.30;2.85;;;;;;;;;;5038280;28;20045;-52
2021/10/16 08:12:11;;;;;;;10.02;3.05;;;;;;;;;;5029002;28;20041;-55
2021/10/16 08:14:39;;;;;;;10.80;3.22;;;;;;;;;;5016886;28;20057;-52
2021/10/16 08:17:08;;;;;;;11.77;3.27;;;;;;;;;;5021272;28;20045;-56
2021/10/16 08:19:34;;;;;;;;;;;;;;;;;;5018006;28;20610;-59
2021/10/16 08:22:01;;;;;;;9.32;2.95;;;;;;;;;;5021442;28;19953;-57
2021/10/16 08:24:27;;;;;;;12.35;3.22;;;;;;;;;;5026434;28;20033;-54
2021/10/16 08:26:54;;;;;;;15.95;5.38;;;;;;;;;;5020149;28;20048;-54
2021/10/16 08:29:21;;;;;;;14.65;3.78;;;;;;;;;;5010116;28;20045;-58
2021/10/16 08:31:49;;;;;;;10.10;3.20;;;;;;;;;;5023602;28;20110;-58
2021/10/16 08:34:15;;;;;;;6.80;2.73;;;;;;;;;;5021793;28;20372;-54
2021/10/16 08:36:42;;;;;;;11.70;2.90;;;;;;;;;;5024711;28;20287;-56
2021/10/16 08:39:08;;;;;;;18.08;2.92;;;;;;;;;;5019806;28;20037;-55
2021/10/16 08:41:35;;;;;;;18.40;2.85;;;;;;;;;;5023947;28;20107;-58
2021/10/16 08:44:01;;;;;;;10.73;2.97;;;;;;;;;;5021607;28;20047;-54
2021/10/16 08:46:28;;;;;;;14.52;3.10;;;;;;;;;;5023478;28;20050;-56
2021/10/16 08:49:01;;;;;;;9.57;2.63;;;;;;;;;;5023281;28;20349;-58
2021/10/16 08:51:27;;;;;;;14.25;2.53;;;;;;;;;;5036150;28;20503;-57
2021/10/16 08:53:54;;;;;;;14.40;3.05;;;;;;;;;;5043257;28;20049;-57
2021/10/16 08:56:22;;;;;;;11.57;3.00;;;;;;;;;;5027209;28;20176;-58
2021/10/16 08:58:49;;;;;;;12.95;3.63;;;;;;;;;;5039566;28;20045;-55
2021/10/16 09:01:16;;;;;;;17.60;3.42;;;;;;;;;;5035837;28;20045;-55
2021/10/16 09:03:45;;;;;;;14.57;3.10;;;;;;;;;;5022736;28;20096;-57
2021/10/16 09:06:15;;;;;;;12.45;2.90;;;;;;;;;;5031828;28;20352;-52
2021/10/16 09:08:43;;;;;;;8.77;2.75;;;;;;;;;;5043549;28;20127;-54
2021/10/16 09:11:14;;;;;;;17.42;3.45;;;;;;;;;;5033264;28;20126;-56
2021/10/16 09:13:42;;;;;;;14.50;3.33;;;;;;;;;;5059958;28;20049;-58
2021/10/16 09:16:18;;;;;;;12.77;3.65;;;;;;;;;;5034574;28;20464;-54
2021/10/16 09:18:49;;;;;;;12.48;3.08;;;;;;;;;;5031011;28;20165;-53
2021/10/16 09:21:18;;;;;;;15.05;3.28;;;;;;;;;;5039002;28;20093;-57
2021/10/16 09:23:44;;;;;;;10.63;2.60;;;;;;;;;;5043847;28;20134;-55
2021/10/16 09:26:11;;;;;;;9.10;2.97;;;;;;;;;;5035405;28;20116;-58
2021/10/16 09:28:38;;;;;;;13.68;3.13;;;;;;;;;;5024508;28;20033;-55
2021/10/16 09:31:10;;;;;;;11.23;2.63;;;;;;;;;;5022555;28;20059;-55
2021/10/16 09:33:57;;;;;;;10.80;2.80;;;;;;;;;;5042319;28;20045;-58
2021/10/16 09:36:25;;;;;;;19.73;3.67;;;;;;;;;;5036956;28;20049;-55
2021/10/16 09:38:52;;;;;;;12.75;2.80;;;;;;;;;;5042903;28;20053;-58
2021/10/16 09:41:22;;;;;;;8.63;2.55;;;;;;;;;;5039098;28;20172;-56
2021/10/16 09:43:49;;;;;;;15.98;2.75;;;;;;;;;;5023263;28;20097;-56
2021/10/16 09:46:16;;;;;;;20.88;3.30;;;;;;;;;;5023637;28;20111;-51
2021/10/16 09:48:45;;;;;;;11.65;2.75;;;;;;;;;;5019029;28;20045;-58
2021/10/16 09:51:14;;;;;;;6.80;2.85;;;;;;;;;;5023171;28;20037;-54
2021/10/16 09:53:44;;;;;;;21.55;3.22;;;;;;;;;;5018682;28;20052;-57
2021/10/16 09:56:11;;;;;;;11.82;2.95;;;;;;;;;;5022241;28;20038;-57
2021/10/16 09:58:38;;;;;;;12.77;2.58;;;;;;;;;;5020392;28;20070;-56
2021/10/16 10:01:05;;;;;;;13.20;2.58;;;;;;;;;;5024901;28;20602;-59
2021/10/16 10:03:33;;;;;;;13.50;2.47;;;;;;;;;;5021401;28;20040;-59
2021/10/16 10:05:59;;;;;;;12.27;2.30;;;;;;;;;;5023101;28;20041;-57
2021/10/16 10:08:26;;;;;;;14.43;2.40;;;;;;;;;;5018522;28;20045;-56
2021/10/16 10:10:55;;;;;;;11.27;2.40;;;;;;;;;;5023428;28;20131;-58
2021/10/16 10:13:24;;;;;;;15.75;2.65;;;;;;;;;;5020306;28;20045;-58
2021/10/16 10:15:51;;;;;;;13.20;2.40;;;;;;;;;;5022334;28;20054;-57
2021/10/16 10:20:59;;;;;;;20.95;2.97;;;;;;;;;;5012007;28;20093;-56
2021/10/16 10:23:26;;;;;;;17.10;2.08;;;;;;;;;;5027400;28;20055;-58
2021/10/16 10:26:07;;;;;;;14.18;2.28;;;;;;;;;;5021225;28;20088;-56
2021/10/16 10:28:49;;;;;;;13.80;3.50;;;;;;;;;;5018375;28;20041;-58
2021/10/16 10:31:37;;;;;;;10.45;2.65;;;;;;;;;;5022118;28;20698;-58
2021/10/16 10:34:03;;;;;;;12.65;2.42;;;;;;;;;;5017346;28;20057;-58
2021/10/16 10:36:30;;;;;;;13.93;2.58;;;;;;;;;;5022511;28;20065;-57
2021/10/16 10:38:56;;;;;;;12.70;2.75;;;;;;;;;;5020900;28;20163;-56
2021/10/16 10:41:35;;;;;;;14.23;2.13;;;;;;;;;;5040550;28;20049;-58
2021/10/16 10:44:02;;;;;;;5.05;1.63;;;;;;;;;;5033395;28;20050;-59
2021/10/16 10:46:30;;;;;;;14.80;2.08;;;;;;;;;;5022394;28;20117;-56
2021/10/16 10:49:07;;;;;;;12.97;1.87;;;;;;;;;;5020152;28;20543;-58
2021/10/16 10:51:35;;;;;;;15.15;2.00;;;;;;;;;;5040649;28;20053;-57
2021/10/16 10:54:09;;;;;;;12.80;2.10;;;;;;;;;;5037967;28;20041;-58
2021/10/16 10:56:39;;;;;;;11.85;2.08;;;;;;;;;;5041349;28;20045;-58
2021/10/16 10:59:09;;;;;;;17.98;2.05;;;;;;;;;;5043457;28;20126;-58
2021/10/16 11:01:50;;;;;;;7.10;1.60;;;;;;;;;;5018304;28;20038;-57
2021/10/16 11:04:36;;;;;;;11.13;2.15;;;;;;;;;;5021699;28;20066;-55
2021/10/16 11:07:04;;;;;;;12.63;2.03;;;;;;;;;;5022535;28;20041;-56
2021/10/16 11:09:30;;;;;;;;;;;;;;;;;;5021587;28;20054;-53
2021/10/16 11:11:57;;;;;;;10.18;2.22;;;;;;;;;;5018425;28;20525;-57
2021/10/16 11:14:29;;;;;;;13.25;3.67;;;;;;;;;;5023310;28;20042;-57
2021/10/16 11:16:59;;;;;;;11.82;2.90;;;;;;;;;;5018988;28;20046;-57
2021/10/16 11:19:26;;;;;;;13.52;2.58;;;;;;;;;;5022340;28;20140;-58
2021/10/16 11:21:53;;;;;;;11.73;2.45;;;;;;;;;;5016743;28;20053;-56
2021/10/16 11:24:19;;;;;;;21.92;2.33;;;;;;;;;;5020934;28;20049;-58
2021/10/16 11:26:53;;;;;;;13.57;1.90;;;;;;;;;;5032134;28;20050;-58
2021/10/16 11:29:29;;;;;;;14.23;2.15;;;;;;;;;;5022443;28;20114;-58
2021/10/16 11:32:17;;;;;;;9.35;1.92;;;;;;;;;;5020822;28;20058;-58
2021/10/16 11:34:55;;;;;;;11.70;2.00;;;;;;;;;;5021305;28;20499;-58
2021/10/16 11:37:32;;;;;;;10.63;2.10;;;;;;;;;;5015950;28;20054;-58
2021/10/16 11:39:59;;;;;;;9.88;2.03;;;;;;;;;;5029052;28;20038;-58
2021/10/16 11:42:26;;;;;;;14.73;2.08;;;;;;;;;;5031722;28;20045;-58
2021/10/16 11:44:52;;;;;;;13.30;2.03;;;;;;;;;;5039742;28;20037;-58
2021/10/16 11:47:22;;;;;;;10.55;2.30;;;;;;;;;;5027918;28;20116;-59
2021/10/16 11:49:50;;;;;;;10.38;2.20;;;;;;;;;;5020301;28;20038;-59
2021/10/16 11:52:23;;;;;;;12.40;2.28;;;;;;;;;;5019769;28;20038;-59
2021/10/16 11:54:49;;;;;;;12.95;2.42;;;;;;;;;;5020760;28;20132;-58
2021/10/16 11:57:27;;;;;;;11.00;2.20;;;;;;;;;;5019093;28;20049;-58
2021/10/16 12:00:14;;;;;;;12.80;2.30;;;;;;;;;;5021689;28;20042;-58
2021/10/16 12:02:42;;;;;;;10.82;1.90;;;;;;;;;;5016248;28;20037;-58
2021/10/16 12:05:10;;;;;;;9.20;2.00;;;;;;;;;;5020425;28;20029;-59
2021/10/16 12:07:36;;;;;;;13.80;1.83;;;;;;;;;;5020711;28;20299;-58
2021/10/16 12:10:22;;;;;;;8.18;2.08;;;;;;;;;;5016901;28;20472;-58
2021/10/16 12:13:03;;;;;;;9.20;1.75;;;;;;;;;;5019940;28;20093;-59
2021/10/16 12:15:34;;;;;;;12.48;1.95;;;;;;;;;;5022851;28;20042;-59
2021/10/16 12:18:02;;;;;;;6.65;1.70;;;;;;;;;;5019335;28;20042;-60
2021/10/16 12:20:29;;;;;;;;;;;;;;;;;;5020912;28;20055;-58
2021/10/16 12:22:57;;;;;;;10.52;1.92;;;;;;;;;;5021942;28;19931;-59
2021/10/16 12:25:23;;;;;;;13.67;2.43;;;;;;;;;;5042910;28;20030;-58
2021/10/16 12:27:58;;;;;;;11.57;3.05;;;;;;;;;;5039002;28;20049;-59
2021/10/16 12:30:25;;;;;;;14.85;3.83;;;;;;;;;;5042660;28;20048;-58
2021/10/16 12:33:06;;;;;;;9.48;2.40;;;;;;;;;;5041639;28;20206;-58
2021/10/16 12:35:33;;;;;;;17.85;2.13;;;;;;;;;;5025554;28;20049;-59
2021/10/16 12:38:01;;;;;;;12.35;2.40;;;;;;;;;;5039449;28;20502;-59
2021/10/16 12:40:37;;;;;;;10.95;2.00;;;;;;;;;;5040016;28;20045;-58
2021/10/16 12:43:04;;;;;;;12.45;2.42;;;;;;;;;;5044067;28;20053;-58
2021/10/16 12:45:38;;;;;;;9.25;2.42;;;;;;;;;;5022792;28;20041;-58
2021/10/16 12:48:23;;;;;;;13.98;2.15;;;;;;;;;;5025194;28;20046;-59
2021/10/16 12:50:57;;;;;;;8.88;2.28;;;;;;;;;;5020340;28;20054;-59
2021/10/16 12:53:23;;;;;;;8.23;1.80;;;;;;;;;;5023002;28;20061;-59
2021/10/16 12:55:50;;;;;;;13.43;2.40;;;;;;;;;;5021115;28;20034;-58
2021/10/16 12:58:17;;;;;;;8.50;2.60;;;;;;;;;;5009425;28;20045;-60
2021/10/16 13:00:44;;;;;;;9.40;2.13;;;;;;;;;;5024306;28;20042;-59
2021/10/16 13:03:15;;;;;;;13.10;2.20;;;;;;;;;;5025851;28;20102;-58
2021/10/16 13:05:41;;;;;;;7.88;2.08;;;;;;;;;;5032007;28;20463;-59
2021/10/16 13:08:11;;;;;;;11.43;2.22;;;;;;;;;;5044586;28;20073;-58
2021/10/16 13:10:37;;;;;;;12.27;3.95;;;;;;;;;;5038610;28;20126;-58
2021/10/16 13:20:49;;;;;;;10.57;2.35;;;;;;;;;;5367728;22;20196;-61
2021/10/16 13:23:17;;;;;;;16.52;2.10;;;;;;;;;;5045029;28;20045;-58
2021/10/16 13:25:44;;;;;;;10.10;2.10;;;;;;;;;;5036082;28;20207;-58
2021/10/16 13:28:10;;;;;;;9.07;2.20;;;;;;;;;;5026666;28;20367;-58
2021/10/16 13:30:36;;;;;;;11.50;2.03;;;;;;;;;;5040161;28;20126;-59
2021/10/16 13:33:03;;;;;;;9.40;2.22;;;;;;;;;;5028235;28;20048;-59
2021/10/16 13:35:29;;;;;;;7.32;1.50;;;;;;;;;;5027547;28;20045;-58
2021/10/16 13:37:57;;;;;;;10.40;1.92;;;;;;;;;;5017921;28;20026;-59
2021/10/16 13:40:26;;;;;;;16.48;1.90;;;;;;;;;;5023794;28;20041;-58
2021/10/16 13:42:52;;;;;;;14.70;1.80;;;;;;;;;;5035058;28;20068;-58
2021/10/16 13:45:20;;;;;;;8.27;1.77;;;;;;;;;;5026499;28;20048;-58
2021/10/16 13:47:47;;;;;;;6.22;1.65;;;;;;;;;;5022724;28;20045;-59
2021/10/16 13:50:13;;;;;;;10.90;1.92;;;;;;;;;;5025081;28;20068;-59
2021/10/16 13:52:40;;;;;;;18.08;2.15;;;;;;;;;;5021334;28;20055;-59
2021/10/16 13:55:07;;;;;;;12.70;1.95;;;;;;;;;;5024093;28;20054;-59
2021/10/16 13:57:35;;;;;;;19.05;2.67;;;;;;;;;;5028886;28;20123;-57
2021/10/16 14:00:02;;;;;;;11.68;1.98;;;;;;;;;;5043953;28;20065;-58
2021/10/16 14:02:29;;;;;;;13.07;1.80;;;;;;;;;;5039333;28;20139;-58
2021/10/16 14:04:55;;;;;;;8.38;2.17;;;;;;;;;;5025882;28;20479;-57
2021/10/16 14:07:23;;;;;;;13.45;1.75;;;;;;;;;;5022945;28;20139;-59
2021/10/16 14:09:50;;;;;;;8.27;1.70;;;;;;;;;;5026688;28;20052;-58
2021/10/16 14:12:17;;;;;;;10.32;1.95;;;;;;;;;;5011821;28;20090;-57
2021/10/16 14:14:44;;;;;;;10.93;1.50;;;;;;;;;;5025103;28;20068;-59
2021/10/16 14:17:11;;;;;;;8.53;1.73;;;;;;;;;;5026389;28;20101;-59
2021/10/16 14:19:38;;;;;;;9.02;1.60;;;;;;;;;;5023038;28;20286;-58
2021/10/16 14:22:04;;;;;;;9.23;1.95;;;;;;;;;;5024422;28;20073;-58
2021/10/16 14:24:31;;;;;;;10.40;1.83;;;;;;;;;;5040360;28;20051;-59
2021/10/16 14:26:58;;;;;;;7.03;1.58;;;;;;;;;;5042267;28;20033;-59
2021/10/16 14:29:25;;;;;;;12.63;1.67;;;;;;;;;;5025642;28;20116;-59
2021/10/16 14:31:52;;;;;;;9.05;1.70;;;;;;;;;;5024298;28;20049;-59
2021/10/16 14:34:19;;;;;;;8.87;1.87;;;;;;;;;;5018724;28;20030;-58
2021/10/16 14:36:46;;;;;;;7.43;1.50;;;;;;;;;;5024016;28;20041;-60
2021/10/16 14:39:12;;;;;;;6.03;1.77;;;;;;;;;;5021836;28;20037;-58
2021/10/16 14:41:39;;;;;;;9.02;1.75;;;;;;;;;;5026628;28;20037;-58
2021/10/16 14:44:05;;;;;;;15.20;2.05;;;;;;;;;;5024203;28;20040;-59
2021/10/16 14:46:32;;;;;;;5.07;1.55;;;;;;;;;;5041926;28;20049;-58
2021/10/16 14:49:00;;;;;;;7.05;1.08;;;;;;;;;;5040887;28;20033;-58
2021/10/16 14:51:27;;;;;;;10.73;1.53;;;;;;;;;;5026127;28;20091;-59
2021/10/16 14:53:54;;;;;;;13.15;3.03;;;;;;;;;;5040127;28;20397;-59